createdAt,value
2024-03-23T00:00:28.730Z,6.04
2024-03-23T00:03:16.916Z,6.01
2024-03-23T00:05:45.324Z,5.99
2024-03-23T00:08:13.633Z,5.95
2024-03-23T00:10:42.337Z,5.94
2024-03-23T00:13:10.633Z,5.91
2024-03-23T00:15:38.850Z,5.86
2024-03-23T00:18:07.021Z,5.80
2024-03-23T00:20:35.606Z,5.74
2024-03-23T00:23:03.849Z,5.67
2024-03-23T00:25:32.156Z,5.59
2024-03-23T00:28:00.585Z,5.52
2024-03-23T00:30:28.846Z,5.45
2024-03-23T00:32:57.176Z,5.36
2024-03-23T00:35:25.444Z,5.28
2024-03-23T00:37:53.683Z,5.20
2024-03-23T00:40:22.130Z,5.13
2024-03-23T00:42:50.295Z,5.06
2024-03-23T00:45:18.590Z,4.97
2024-03-23T00:47:46.889Z,4.91
2024-03-23T00:50:15.632Z,4.85
2024-03-23T00:52:43.861Z,4.77
2024-03-23T00:55:12.311Z,4.71
2024-03-23T00:57:40.517Z,4.65
2024-03-23T01:00:11.508Z,4.59
2024-03-23T01:02:39.728Z,4.53
2024-03-23T01:05:08.199Z,4.47
2024-03-23T01:07:36.461Z,4.41
2024-03-23T01:10:05.529Z,4.34
2024-03-23T01:12:33.823Z,4.28
2024-03-23T01:15:02.156Z,4.23
2024-03-23T01:17:30.462Z,4.18
2024-03-23T01:19:58.832Z,4.13
2024-03-23T01:22:27.125Z,4.08
2024-03-23T01:24:55.386Z,4.03
2024-03-23T01:27:24.337Z,3.98
2024-03-23T01:29:53.572Z,3.93
2024-03-23T01:32:21.833Z,3.89
2024-03-23T01:34:50.509Z,3.85
2024-03-23T01:37:18.853Z,3.81
2024-03-23T01:39:47.083Z,3.79
2024-03-23T01:42:15.353Z,3.75
2024-03-23T01:44:43.635Z,3.74
2024-03-23T01:47:12.012Z,3.72
2024-03-23T01:49:40.522Z,3.69
2024-03-23T01:52:09.419Z,3.67
2024-03-23T01:54:39.223Z,3.65
2024-03-23T01:57:07.825Z,3.63
2024-03-23T01:59:36.849Z,3.61
2024-03-23T02:02:05.447Z,3.58
2024-03-23T02:04:33.830Z,3.57
2024-03-23T02:07:02.231Z,3.56
2024-03-23T02:09:31.339Z,3.54
2024-03-23T02:11:59.870Z,3.52
2024-03-23T02:14:28.180Z,3.49
2024-03-23T02:16:56.644Z,3.45
2024-03-23T02:19:25.386Z,3.42
2024-03-23T02:21:53.748Z,3.40
2024-03-23T02:24:22.116Z,3.38
2024-03-23T02:26:50.598Z,3.38
2024-03-23T02:29:20.651Z,3.38
2024-03-23T02:31:49.028Z,3.35
2024-03-23T02:34:17.334Z,3.33
2024-03-23T02:36:45.619Z,3.28
2024-03-23T02:39:13.993Z,3.24
2024-03-23T02:41:42.306Z,3.18
2024-03-23T02:44:12.924Z,3.10
2024-03-23T02:46:41.496Z,3.00
2024-03-23T02:49:09.719Z,2.94
2024-03-23T02:51:37.884Z,2.92
2024-03-23T02:54:06.388Z,2.89
2024-03-23T02:56:34.695Z,2.87
2024-03-23T02:59:02.872Z,2.86
2024-03-23T03:01:31.366Z,2.85
2024-03-23T03:03:59.923Z,2.84
2024-03-23T03:06:28.995Z,2.81
2024-03-23T03:08:57.382Z,2.80
2024-03-23T03:11:25.725Z,2.79
2024-03-23T03:13:57.023Z,2.80
2024-03-23T03:16:25.480Z,2.79
2024-03-23T03:18:53.964Z,2.77
2024-03-23T03:21:23.102Z,2.76
2024-03-23T03:23:51.541Z,2.77
2024-03-23T03:26:20.306Z,2.75
2024-03-23T03:28:50.004Z,2.73
2024-03-23T03:31:21.961Z,2.72
2024-03-23T03:33:52.620Z,2.70
2024-03-23T03:36:21.283Z,2.66
2024-03-23T03:38:49.688Z,2.63
2024-03-23T03:41:19.848Z,2.61
2024-03-23T03:43:48.266Z,2.61
2024-03-23T03:46:16.670Z,2.61
2024-03-23T03:48:46.217Z,2.59
2024-03-23T03:51:14.568Z,2.58
2024-03-23T03:53:42.887Z,2.58
2024-03-23T03:56:11.271Z,2.57
2024-03-23T03:58:39.739Z,2.54
2024-03-23T04:01:07.971Z,2.50
2024-03-23T04:03:36.713Z,2.48
2024-03-23T04:06:05.341Z,2.45
2024-03-23T04:08:33.586Z,2.44
2024-03-23T04:11:01.948Z,2.43
2024-03-23T04:13:30.394Z,2.43
2024-03-23T04:15:58.541Z,2.43
2024-03-23T04:18:26.763Z,2.44
2024-03-23T04:20:55.102Z,2.45
2024-03-23T04:23:23.692Z,2.46
2024-03-23T04:25:54.400Z,2.48
2024-03-23T04:28:23.413Z,2.51
2024-03-23T04:30:51.753Z,2.55
2024-03-23T04:33:20.184Z,2.57
2024-03-23T04:35:51.163Z,2.59
2024-03-23T04:38:19.318Z,2.62
2024-03-23T04:40:56.579Z,2.64
2024-03-23T04:43:25.113Z,2.67
2024-03-23T04:45:53.682Z,2.71
2024-03-23T04:48:23.596Z,2.75
2024-03-23T04:50:58.649Z,2.79
2024-03-23T04:53:29.609Z,2.82
2024-03-23T04:56:03.170Z,2.84
2024-03-23T04:58:31.451Z,2.86
2024-03-23T05:00:59.675Z,2.90
2024-03-23T05:03:27.982Z,2.93
2024-03-23T05:05:56.427Z,2.98
2024-03-23T05:08:24.830Z,3.03
2024-03-23T05:10:53.244Z,3.09
2024-03-23T05:13:21.466Z,3.15
2024-03-23T05:15:56.342Z,3.22
2024-03-23T05:18:27.710Z,3.30
2024-03-23T05:21:00.320Z,3.37
2024-03-23T05:23:30.473Z,3.46
2024-03-23T05:25:58.873Z,3.55
2024-03-23T05:28:27.214Z,3.64
2024-03-23T05:30:56.915Z,3.71
2024-03-23T05:33:25.386Z,3.79
2024-03-23T05:36:01.760Z,3.86
2024-03-23T05:38:29.974Z,3.93
2024-03-23T05:41:03.035Z,4.00
2024-03-23T05:43:32.423Z,4.08
2024-03-23T05:46:08.943Z,4.15
2024-03-23T05:48:37.729Z,4.24
2024-03-23T05:51:06.127Z,4.33
2024-03-23T05:53:35.233Z,4.42
2024-03-23T05:56:05.056Z,4.48
2024-03-23T05:58:34.006Z,4.55
2024-03-23T06:01:03.370Z,4.61
2024-03-23T06:03:31.795Z,4.66
2024-03-23T06:06:00.354Z,4.73
2024-03-23T06:08:28.775Z,4.79
2024-03-23T06:10:57.136Z,4.86
2024-03-23T06:13:30.966Z,4.95
2024-03-23T06:15:59.808Z,5.05
2024-03-23T06:18:28.904Z,5.13
2024-03-23T06:20:57.361Z,5.21
2024-03-23T06:23:28.566Z,5.31
2024-03-23T06:25:57.038Z,5.39
2024-03-23T06:28:25.388Z,5.46
2024-03-23T06:30:53.801Z,5.53
2024-03-23T06:33:22.186Z,5.60
2024-03-23T06:35:54.130Z,5.68
2024-03-23T06:38:22.383Z,5.77
2024-03-23T06:40:51.932Z,5.83
2024-03-23T06:43:20.232Z,5.94
2024-03-23T06:45:55.447Z,6.03
2024-03-23T06:48:24.226Z,6.12
2024-03-23T06:50:59.808Z,6.22
2024-03-23T06:53:28.319Z,6.32
2024-03-23T06:55:56.817Z,6.40
2024-03-23T06:58:26.509Z,6.52
2024-03-23T07:00:54.870Z,6.66
2024-03-23T07:03:24.206Z,6.77
2024-03-23T07:05:52.593Z,6.88
2024-03-23T07:08:23.497Z,7.00
2024-03-23T07:10:51.918Z,7.11
2024-03-23T07:13:20.603Z,7.24
2024-03-23T07:15:56.820Z,7.37
2024-03-23T07:18:25.444Z,7.50
2024-03-23T07:20:57.988Z,7.61
2024-03-23T07:23:26.674Z,7.73
2024-03-23T07:26:02.871Z,7.83
2024-03-23T07:28:33.890Z,7.94
2024-03-23T07:31:06.395Z,8.05
2024-03-23T07:33:34.700Z,8.18
2024-03-23T07:36:06.783Z,8.29
2024-03-23T07:38:35.434Z,8.42
2024-03-23T07:41:11.265Z,8.54
2024-03-23T07:43:41.493Z,8.67
2024-03-23T07:46:10.006Z,8.78
2024-03-23T07:48:38.338Z,8.88
2024-03-23T07:51:12.283Z,9.01
2024-03-23T07:53:40.887Z,9.14
2024-03-23T07:56:13.364Z,9.23
2024-03-23T07:58:42.150Z,9.38
2024-03-23T08:01:18.534Z,9.56
2024-03-23T08:03:47.560Z,9.72
2024-03-23T08:06:18.085Z,9.85
2024-03-23T08:08:47.731Z,9.98
2024-03-23T08:11:16.319Z,10.12
2024-03-23T08:13:46.815Z,10.23
2024-03-23T08:16:15.480Z,10.35
2024-03-23T08:18:44.203Z,10.50
2024-03-23T08:21:12.916Z,10.66
2024-03-23T08:23:41.934Z,10.75
2024-03-23T08:26:12.619Z,10.82
2024-03-23T08:28:41.291Z,10.89
2024-03-23T08:31:11.862Z,10.94
2024-03-23T08:33:41.462Z,11.03
2024-03-23T08:36:15.504Z,11.14
2024-03-23T08:38:44.104Z,11.23
2024-03-23T08:41:14.434Z,11.33
2024-03-23T08:43:45.282Z,11.39
2024-03-23T08:46:16.600Z,11.46
2024-03-23T08:48:47.531Z,11.48
2024-03-23T08:51:19.065Z,11.56
2024-03-23T08:53:47.810Z,11.67
2024-03-23T08:56:17.057Z,11.80
2024-03-23T08:58:45.492Z,11.85
2024-03-23T09:01:14.831Z,11.88
2024-03-23T09:03:43.430Z,11.89
2024-03-23T09:06:13.786Z,11.92
2024-03-23T09:08:43.001Z,12.05
2024-03-23T09:11:14.547Z,12.17
2024-03-23T09:13:43.084Z,12.26
2024-03-23T09:16:11.747Z,12.35
2024-03-23T09:18:40.446Z,12.40
2024-03-23T09:21:16.817Z,12.47
2024-03-23T09:23:46.267Z,12.52
2024-03-23T09:26:14.743Z,12.61
2024-03-23T09:28:44.218Z,12.68
2024-03-23T09:31:16.330Z,12.77
2024-03-23T09:33:44.790Z,12.81
2024-03-23T09:36:13.343Z,12.89
2024-03-23T09:38:42.677Z,12.92
2024-03-23T09:41:11.490Z,12.97
2024-03-23T09:43:40.288Z,13.04
2024-03-23T09:46:09.425Z,13.17
2024-03-23T09:48:38.214Z,13.27
2024-03-23T09:51:09.327Z,13.33
2024-03-23T09:53:38.574Z,13.45
2024-03-23T09:56:08.492Z,13.55
2024-03-23T09:58:37.656Z,13.59
2024-03-23T10:03:23.358Z,13.67
2024-03-23T10:06:06.163Z,13.73
2024-03-23T10:08:38.774Z,13.83
2024-03-23T10:11:17.203Z,13.88
2024-03-23T10:13:49.410Z,13.91
2024-03-23T10:16:25.230Z,13.92
2024-03-23T10:18:53.534Z,13.94
2024-03-23T10:21:21.987Z,14.03
2024-03-23T10:23:51.006Z,14.13
2024-03-23T10:26:22.547Z,14.18
2024-03-23T10:29:03.224Z,14.23
2024-03-23T10:31:37.335Z,14.32
2024-03-23T10:34:05.758Z,14.42
2024-03-23T10:36:36.467Z,14.52
2024-03-23T10:39:09.071Z,14.58
2024-03-23T10:41:38.510Z,14.62
2024-03-23T10:44:07.811Z,14.70
2024-03-23T10:46:38.850Z,14.77
2024-03-23T10:49:08.583Z,14.85
2024-03-23T10:51:38.762Z,14.89
2024-03-23T10:54:08.320Z,14.91
2024-03-23T10:56:38.339Z,14.98
2024-03-23T10:59:09.763Z,15.09
2024-03-23T11:01:55.724Z,15.17
2024-03-23T11:04:40.659Z,15.22
2024-03-23T11:07:27.647Z,15.26
2024-03-23T11:09:56.630Z,15.33
2024-03-23T11:12:25.319Z,15.40
2024-03-23T11:14:55.268Z,15.50
2024-03-23T11:17:24.894Z,15.58
2024-03-23T11:20:06.863Z,15.66
2024-03-23T11:22:54.053Z,15.71
2024-03-23T11:25:27.733Z,15.75
2024-03-23T11:27:58.322Z,15.70
2024-03-23T11:30:31.989Z,15.63
2024-03-23T11:33:03.259Z,15.60
2024-03-23T11:35:36.252Z,15.77
2024-03-23T11:38:06.456Z,15.93
2024-03-23T11:40:36.371Z,16.11
2024-03-23T11:43:06.522Z,16.22
2024-03-23T11:45:46.067Z,16.31
2024-03-23T11:48:19.548Z,16.33
2024-03-23T11:50:50.460Z,16.35
2024-03-23T11:53:23.824Z,16.38
2024-03-23T11:55:55.481Z,16.37
2024-03-23T11:58:28.920Z,16.42
2024-03-23T12:01:08.440Z,16.49
2024-03-23T12:03:38.014Z,16.56
2024-03-23T12:06:08.237Z,16.72
2024-03-23T12:08:36.864Z,16.82
2024-03-23T12:11:11.958Z,16.91
2024-03-23T12:13:44.602Z,16.98
2024-03-23T12:16:18.977Z,17.04
2024-03-23T12:18:50.277Z,17.12
2024-03-23T12:21:18.891Z,17.12
2024-03-23T12:23:48.085Z,17.17
2024-03-23T12:26:17.850Z,17.26
2024-03-23T12:28:46.190Z,17.31
2024-03-23T12:31:14.646Z,17.31
2024-03-23T12:33:43.711Z,17.25
2024-03-23T12:36:12.330Z,17.24
2024-03-23T12:38:40.932Z,17.29
2024-03-23T12:41:36.770Z,17.36
2024-03-23T12:44:07.020Z,17.46
2024-03-23T12:46:35.448Z,17.52
2024-03-23T12:49:03.729Z,17.55
2024-03-23T12:52:35.233Z,17.61
2024-03-23T12:55:06.362Z,17.64
2024-03-23T12:57:35.457Z,17.65
2024-03-23T13:00:05.327Z,17.67
2024-03-23T13:02:36.166Z,17.61
2024-03-23T13:05:04.985Z,17.47
2024-03-23T13:07:33.343Z,17.42
2024-03-23T13:10:01.971Z,17.43
2024-03-23T13:12:30.443Z,17.45
2024-03-23T13:14:58.746Z,17.50
2024-03-23T13:17:28.299Z,17.49
2024-03-23T13:19:59.789Z,17.49
2024-03-23T13:22:28.326Z,17.52
2024-03-23T13:24:56.599Z,17.54
2024-03-23T13:27:25.140Z,17.54
2024-03-23T13:29:54.223Z,17.53
2024-03-23T13:32:22.540Z,17.59
2024-03-23T13:34:54.142Z,17.65
2024-03-23T13:37:22.924Z,17.69
2024-03-23T13:39:51.276Z,17.72
2024-03-23T13:42:19.708Z,17.74
2024-03-23T13:44:48.234Z,17.72
2024-03-23T13:47:16.602Z,17.72
2024-03-23T13:49:45.159Z,17.75
2024-03-23T13:52:13.564Z,17.78
2024-03-23T13:54:47.340Z,17.82
2024-03-23T13:57:15.706Z,17.84
2024-03-23T13:59:44.086Z,17.78
2024-03-23T14:02:15.658Z,17.73
2024-03-23T14:04:44.253Z,17.71
2024-03-23T14:07:12.818Z,17.68
2024-03-23T14:09:41.294Z,17.62
2024-03-23T14:12:10.862Z,17.54
2024-03-23T14:14:39.333Z,17.49
2024-03-23T14:17:07.852Z,17.49
2024-03-23T14:19:36.138Z,17.46
2024-03-23T14:22:05.412Z,17.44
2024-03-23T14:24:34.846Z,17.41
2024-03-23T14:27:06.396Z,17.40
2024-03-23T14:29:36.460Z,17.35
2024-03-23T14:32:06.311Z,17.34
2024-03-23T14:34:34.559Z,17.34
2024-03-23T14:37:02.939Z,17.33
2024-03-23T14:39:35.631Z,17.29
2024-03-23T14:42:05.120Z,17.22
2024-03-23T14:44:33.390Z,17.16
2024-03-23T14:47:01.810Z,17.10
2024-03-23T14:49:30.101Z,17.03
2024-03-23T14:51:59.224Z,16.95
2024-03-23T14:54:27.910Z,16.89
2024-03-23T14:56:58.831Z,16.87
2024-03-23T14:59:27.506Z,16.84
2024-03-23T15:01:56.376Z,16.80
2024-03-23T15:04:25.077Z,16.78
2024-03-23T15:06:53.730Z,16.73
2024-03-23T15:09:22.211Z,16.67
2024-03-23T15:11:50.870Z,16.62
2024-03-23T15:14:19.802Z,16.57
2024-03-23T15:16:50.274Z,16.53
2024-03-23T15:19:18.717Z,16.50
2024-03-23T15:21:47.555Z,16.48
2024-03-23T15:24:15.965Z,16.45
2024-03-23T15:26:45.510Z,16.41
2024-03-23T15:29:17.826Z,16.38
2024-03-23T15:31:47.423Z,16.33
2024-03-23T15:34:16.021Z,16.29
2024-03-23T15:36:45.775Z,16.19
2024-03-23T15:39:15.445Z,16.13
2024-03-23T15:41:46.352Z,16.06
2024-03-23T15:44:14.730Z,15.99
2024-03-23T15:46:43.355Z,15.93
2024-03-23T15:49:12.076Z,15.84
2024-03-23T15:51:43.297Z,15.77
2024-03-23T15:54:14.732Z,15.68
2024-03-23T15:56:43.519Z,15.59
2024-03-23T15:59:12.328Z,15.49
2024-03-23T16:01:41.270Z,15.40
2024-03-23T16:04:09.724Z,15.29
2024-03-23T16:06:38.060Z,15.23
2024-03-23T16:09:06.667Z,15.14
2024-03-23T16:11:35.151Z,15.04
2024-03-23T16:14:03.684Z,14.99
2024-03-23T16:16:32.519Z,14.92
2024-03-23T16:19:01.202Z,14.82
2024-03-23T16:21:29.792Z,14.72
2024-03-23T16:23:59.010Z,14.64
2024-03-23T16:26:27.843Z,14.55
2024-03-23T16:29:06.762Z,14.48
2024-03-23T16:31:35.482Z,14.40
2024-03-23T16:34:04.467Z,14.31
2024-03-23T16:36:33.249Z,14.21
2024-03-23T16:39:01.844Z,14.12
2024-03-23T16:41:30.242Z,14.04
2024-03-23T16:43:58.812Z,13.94
2024-03-23T16:46:27.869Z,13.85
2024-03-23T16:48:57.265Z,13.74
2024-03-23T16:51:26.057Z,13.66
2024-03-23T16:53:58.455Z,13.59
2024-03-23T16:56:28.748Z,13.52
2024-03-23T16:58:59.295Z,13.45
2024-03-23T17:01:29.212Z,13.38
2024-03-23T17:03:59.247Z,13.31
2024-03-23T17:06:27.948Z,13.22
2024-03-23T17:08:57.693Z,13.15
2024-03-23T17:11:26.430Z,13.08
2024-03-23T17:13:56.941Z,13.02
2024-03-23T17:16:27.020Z,12.96
2024-03-23T17:18:55.601Z,12.88
2024-03-23T17:21:24.545Z,12.79
2024-03-23T17:23:54.826Z,12.71
2024-03-23T17:26:28.334Z,12.63
2024-03-23T17:28:56.765Z,12.56
2024-03-23T17:31:25.741Z,12.50
2024-03-23T17:33:54.356Z,12.41
2024-03-23T17:36:29.336Z,12.33
2024-03-23T17:38:58.384Z,12.26
2024-03-23T17:41:28.843Z,12.21
2024-03-23T17:43:57.472Z,12.16
2024-03-23T17:46:26.035Z,12.11
2024-03-23T17:48:54.362Z,12.07
2024-03-23T17:51:23.264Z,12.01
2024-03-23T17:53:52.066Z,11.94
2024-03-23T17:56:20.880Z,11.90
2024-03-23T17:58:49.914Z,11.84
2024-03-23T18:01:22.858Z,11.78
2024-03-23T18:03:55.046Z,11.74
2024-03-23T18:06:24.062Z,11.69
2024-03-23T18:08:52.976Z,11.62
2024-03-23T18:11:21.469Z,11.56
2024-03-23T18:13:50.176Z,11.53
2024-03-23T18:16:28.607Z,11.47
2024-03-23T18:18:57.898Z,11.41
2024-03-23T18:21:29.115Z,11.33
2024-03-23T18:23:57.524Z,11.28
2024-03-23T18:26:26.244Z,11.23
2024-03-23T18:28:54.925Z,11.18
2024-03-23T18:31:23.304Z,11.12
2024-03-23T18:33:52.702Z,11.10
2024-03-23T18:37:00.250Z,11.07
2024-03-23T18:39:30.251Z,10.98
2024-03-23T18:41:58.677Z,10.91
2024-03-23T18:44:27.189Z,10.85
2024-03-23T18:47:04.281Z,10.79
2024-03-23T18:49:32.650Z,10.71
2024-03-23T18:52:01.920Z,10.66
2024-03-23T18:54:30.800Z,10.61
2024-03-23T18:57:00.170Z,10.56
2024-03-23T18:59:29.190Z,10.50
2024-03-23T19:01:58.736Z,10.47
2024-03-23T19:04:27.112Z,10.44
2024-03-23T19:06:55.641Z,10.41
2024-03-23T19:09:27.077Z,10.38
2024-03-23T19:11:55.752Z,10.35
2024-03-23T19:14:24.905Z,10.34
2024-03-23T19:16:54.897Z,10.33
2024-03-23T19:19:23.229Z,10.35
2024-03-23T19:21:52.279Z,10.37
2024-03-23T19:24:20.867Z,10.38
2024-03-23T19:26:49.411Z,10.38
2024-03-23T19:29:20.755Z,10.38
2024-03-23T19:31:49.200Z,10.39
2024-03-23T19:34:18.216Z,10.41
2024-03-23T19:36:46.709Z,10.40
2024-03-23T19:39:15.479Z,10.37
2024-03-23T19:41:45.981Z,10.34
2024-03-23T19:44:14.994Z,10.30
2024-03-23T19:46:43.310Z,10.27
2024-03-23T19:49:12.198Z,10.27
2024-03-23T19:51:40.961Z,10.25
2024-03-23T19:54:14.820Z,10.26
2024-03-23T19:56:51.102Z,10.29
2024-03-23T20:02:49.006Z,10.43
2024-03-23T20:05:20.985Z,10.47
2024-03-23T20:07:51.686Z,10.53
2024-03-23T20:10:20.211Z,10.58
2024-03-23T20:12:48.881Z,10.61
2024-03-23T20:15:19.816Z,10.62
2024-03-23T20:17:49.933Z,10.62
2024-03-23T20:20:19.842Z,10.61
2024-03-23T20:22:51.402Z,10.64
2024-03-23T20:25:20.063Z,10.70
2024-03-23T20:27:48.445Z,10.74
2024-03-23T20:30:17.641Z,10.77
2024-03-23T20:32:46.010Z,10.77
2024-03-23T20:35:16.851Z,10.75
2024-03-23T20:37:45.311Z,10.74
2024-03-23T20:40:14.175Z,10.74
2024-03-23T20:42:42.731Z,10.66
2024-03-23T20:45:11.293Z,10.54
2024-03-23T20:47:39.866Z,10.42
2024-03-23T20:50:09.288Z,10.34
2024-03-23T20:52:37.789Z,10.24
2024-03-23T20:55:10.177Z,10.16
2024-03-23T20:57:43.363Z,10.12
2024-03-23T21:00:12.598Z,10.09
2024-03-23T21:02:43.007Z,10.09
2024-03-23T21:05:14.043Z,10.11
2024-03-23T21:07:42.460Z,10.14
2024-03-23T21:10:10.912Z,10.16
2024-03-23T21:12:41.898Z,10.17
2024-03-23T21:15:11.015Z,10.13
2024-03-23T21:17:39.410Z,10.08
2024-03-23T21:20:12.802Z,10.02
2024-03-23T21:22:41.451Z,9.98
2024-03-23T21:25:12.958Z,9.92
2024-03-23T21:27:41.604Z,9.85
2024-03-23T21:30:10.157Z,9.78
2024-03-23T21:32:38.680Z,9.74
2024-03-23T21:35:07.438Z,9.68
2024-03-23T21:37:35.934Z,9.60
2024-03-23T21:40:06.317Z,9.52
2024-03-23T21:42:34.949Z,9.45
2024-03-23T21:45:06.391Z,9.39
2024-03-23T21:47:36.100Z,9.33
2024-03-23T21:50:04.946Z,9.34
2024-03-23T21:52:36.459Z,9.31
2024-03-23T21:55:05.824Z,9.26
2024-03-23T21:57:39.934Z,9.21
2024-03-23T22:02:26.894Z,9.14
2024-03-23T22:04:56.468Z,9.10
2024-03-23T22:07:29.109Z,9.05
2024-03-23T22:09:59.518Z,8.97
2024-03-23T22:12:28.074Z,8.90
2024-03-23T22:14:56.449Z,8.82
2024-03-23T22:17:27.059Z,8.77
2024-03-23T22:19:55.450Z,8.71
2024-03-23T22:22:23.843Z,8.68
2024-03-23T22:24:53.424Z,8.64
2024-03-23T22:27:21.888Z,8.57
2024-03-23T22:29:50.061Z,8.50
2024-03-23T22:32:18.542Z,8.43
2024-03-23T22:34:48.933Z,8.36
2024-03-23T22:37:19.708Z,8.30
2024-03-23T22:39:50.084Z,8.25
2024-03-23T22:42:18.608Z,8.22
2024-03-23T22:44:46.951Z,8.18
2024-03-23T22:47:15.626Z,8.13
2024-03-23T22:49:43.998Z,8.09
2024-03-23T22:52:12.242Z,8.05
2024-03-23T22:54:40.785Z,8.01
2024-03-23T22:57:09.152Z,7.98
2024-03-23T22:59:37.534Z,7.96
2024-03-23T23:02:06.070Z,7.91
2024-03-23T23:04:35.470Z,7.85
2024-03-23T23:07:05.325Z,7.79
2024-03-23T23:09:34.011Z,7.72
2024-03-23T23:12:02.346Z,7.65
2024-03-23T23:14:31.729Z,7.59
2024-03-23T23:17:00.139Z,7.53
2024-03-23T23:19:28.432Z,7.48
2024-03-23T23:21:56.933Z,7.44
2024-03-23T23:24:25.255Z,7.41
2024-03-23T23:26:54.454Z,7.36
2024-03-23T23:29:22.932Z,7.32
2024-03-23T23:31:51.438Z,7.28
2024-03-23T23:34:19.729Z,7.26
2024-03-23T23:36:48.183Z,7.23
2024-03-23T23:39:16.569Z,7.20
2024-03-23T23:41:44.836Z,7.15
2024-03-23T23:44:14.237Z,7.10
2024-03-23T23:46:42.595Z,7.05
2024-03-23T23:49:10.935Z,7.00
2024-03-23T23:51:39.331Z,6.95
2024-03-23T23:54:08.024Z,6.90
2024-03-23T23:56:36.386Z,6.85
2024-03-23T23:59:04.916Z,6.80
